Time;durP1;ratioP1;P1;durP2;ratioP2;P2;SDS_P1;SDS_P2;PMS_P1;PMS_P2;Temp;Humidity;BMP_temperature;BMP_pressure;BME280_temperature;BME280_humidity;BME280_pressure;Samples;Min_cycle;Max_cycle;Signal;HPM_P1;HPM_P2
2023/08/24 00:00:41;;;;;;;6.07;3.40;;;21.20;99.90;;;;;;5008714;28;20036;-47
2023/08/24 00:03:08;;;;;;;6.63;3.35;;;21.10;99.90;;;;;;4991757;28;20421;-50
2023/08/24 00:05:36;;;;;;;5.70;4.07;;;21.00;99.90;;;;;;4975262;28;20026;-46
2023/08/24 00:08:05;;;;;;;10.40;3.53;;;21.00;99.90;;;;;;4975692;28;20025;-51
2023/08/24 00:10:30;;;;;;;4.38;3.42;;;20.90;99.90;;;;;;5009449;28;20391;-46
2023/08/24 00:12:56;;;;;;;10.15;3.60;;;20.90;99.90;;;;;;4991544;28;20116;-50
2023/08/24 00:15:22;;;;;;;8.90;4.00;;;20.90;99.90;;;;;;4975192;28;20034;-51
2023/08/24 00:17:47;;;;;;;6.18;3.85;;;20.80;99.90;;;;;;4991294;28;20061;-49
2023/08/24 00:20:13;;;;;;;4.38;3.53;;;20.80;99.90;;;;;;4991028;28;20068;-51
2023/08/24 00:22:39;;;;;;;6.45;4.20;;;20.80;99.90;;;;;;5009205;28;20033;-51
2023/08/24 00:25:06;;;;;;;9.90;3.75;;;20.70;99.90;;;;;;4991331;28;20033;-51
2023/08/24 00:27:32;;;;;;;4.18;3.20;;;20.60;99.90;;;;;;4991080;28;20531;-51
2023/08/24 00:29:58;;;;;;;8.88;4.25;;;20.60;99.90;;;;;;5008738;28;20093;-47
2023/08/24 00:32:23;;;;;;;17.80;3.83;;;20.60;99.90;;;;;;4991172;28;20038;-46
2023/08/24 00:34:49;;;;;;;9.73;3.75;;;20.60;99.90;;;;;;4991138;28;20022;-47
2023/08/24 00:37:14;;;;;;;9.60;4.18;;;20.50;99.90;;;;;;4991053;28;20038;-45
2023/08/24 00:39:41;;;;;;;6.90;3.85;;;20.50;99.90;;;;;;5008456;28;20036;-50
2023/08/24 00:42:06;;;;;;;8.52;4.47;;;20.50;99.90;;;;;;4990954;28;20056;-46
2023/08/24 00:44:32;;;;;;;14.23;4.05;;;20.50;99.90;;;;;;5008268;28;20029;-49
2023/08/24 00:46:59;;;;;;;8.52;4.88;;;20.50;99.90;;;;;;5008517;28;20018;-49
2023/08/24 00:49:25;;;;;;;6.20;3.63;;;20.50;99.90;;;;;;4990652;28;20072;-46
2023/08/24 00:51:51;;;;;;;7.05;4.13;;;20.40;99.90;;;;;;4990586;28;20026;-45
2023/08/24 00:54:18;;;;;;;14.15;4.53;;;20.40;99.90;;;;;;4991006;28;20085;-45
2023/08/24 00:56:44;;;;;;;7.70;4.13;;;20.30;99.90;;;;;;5010018;28;20037;-48
2023/08/24 00:59:10;;;;;;;8.93;3.85;;;20.30;99.90;;;;;;4976581;28;20022;-49
2023/08/24 01:01:35;;;;;;;8.68;4.13;;;20.30;99.90;;;;;;4993508;28;20034;-41
2023/08/24 01:04:02;;;;;;;10.32;4.28;;;20.30;99.90;;;;;;4992961;28;20367;-44
2023/08/24 01:06:28;;;;;;;5.10;3.88;;;20.30;99.90;;;;;;4995271;28;20044;-45
2023/08/24 01:08:54;;;;;;;9.98;4.32;;;20.30;99.90;;;;;;4978086;28;20022;-41
2023/08/24 01:12:00;;;;;;;6.32;4.00;;;20.30;99.90;;;;;;4977951;28;20023;-44
2023/08/24 01:14:50;;;;;;;10.82;3.80;;;20.20;99.90;;;;;;4995355;28;20140;-44
2023/08/24 01:17:22;;;;;;;8.23;5.05;;;20.20;99.90;;;;;;4977613;28;20077;-47
2023/08/24 01:19:49;;;;;;;9.93;4.57;;;20.20;99.90;;;;;;5015290;23;20042;-57
2023/08/24 01:22:27;;;;;;;11.55;4.45;;;20.10;99.90;;;;;;5035777;28;20032;-55
2023/08/24 01:25:24;;;;;;;8.25;4.80;;;20.10;99.90;;;;;;5015968;28;20029;-57
2023/08/24 01:27:51;;;;;;;5.85;4.28;;;20.00;99.90;;;;;;5033297;28;20474;-56
2023/08/24 01:30:17;;;;;;;6.22;4.63;;;20.00;99.90;;;;;;5032676;28;20509;-57
2023/08/24 01:32:43;;;;;;;5.45;3.80;;;20.00;99.90;;;;;;5033140;28;20496;-57
2023/08/24 01:35:09;;;;;;;10.13;5.70;;;20.10;99.90;;;;;;5033518;28;20060;-58
2023/08/24 01:37:35;;;;;;;7.50;4.22;;;20.10;99.90;;;;;;5034668;28;20033;-58
2023/08/24 01:40:13;;;;;;;7.90;4.63;;;20.20;99.90;;;;;;5032922;28;20033;-58
2023/08/24 01:42:51;;;;;;;9.85;4.13;;;20.20;99.90;;;;;;5035535;28;20135;-58
2023/08/24 01:45:18;;;;;;;7.32;3.97;;;20.20;99.90;;;;;;5042074;28;20029;-59
2023/08/24 01:47:47;;;;;;;5.90;4.00;;;20.30;99.90;;;;;;5038410;28;20036;-58
2023/08/24 01:50:13;;;;;;;8.10;4.07;;;20.30;99.90;;;;;;5032838;28;20108;-58
2023/08/24 01:52:39;;;;;;;11.90;4.28;;;20.10;99.90;;;;;;5033074;28;20025;-58
2023/08/24 01:55:05;;;;;;;6.63;3.88;;;20.00;99.90;;;;;;5032979;28;20048;-57
2023/08/24 01:57:31;;;;;;;7.03;4.70;;;20.00;99.90;;;;;;5032931;28;20021;-55
2023/08/24 01:59:56;;;;;;;7.25;4.70;;;19.90;99.90;;;;;;5032329;28;20030;-58
2023/08/24 02:02:23;;;;;;;7.63;5.65;;;20.10;99.90;;;;;;5032907;28;20017;-58
2023/08/24 02:04:48;;;;;;;11.50;5.75;;;20.10;99.90;;;;;;5032538;28;20033;-58
2023/08/24 02:07:14;;;;;;;6.07;4.90;;;20.10;99.90;;;;;;5032598;28;20030;-58
2023/08/24 02:09:40;;;;;;;7.45;5.57;;;20.10;99.90;;;;;;5032153;28;20021;-59
2023/08/24 02:12:06;;;;;;;7.50;6.63;;;20.10;99.90;;;;;;5032052;28;20116;-57
2023/08/24 02:14:31;;;;;;;8.45;5.63;;;20.20;99.90;;;;;;5032276;28;20469;-58
2023/08/24 02:16:57;;;;;;;13.75;5.57;;;20.10;99.90;;;;;;5031124;28;20041;-58
2023/08/24 02:19:22;;;;;;;7.78;5.78;;;20.10;99.90;;;;;;5031892;28;20033;-58
2023/08/24 02:21:48;;;;;;;12.85;7.90;;;20.10;99.90;;;;;;5032124;28;20428;-57
2023/08/24 02:24:13;;;;;;;9.10;6.43;;;20.00;99.90;;;;;;5032002;28;20026;-58
2023/08/24 02:26:39;;;;;;;8.25;6.53;;;20.00;99.90;;;;;;5032128;28;20321;-55
2023/08/24 02:29:04;;;;;;;8.30;6.18;;;19.90;99.90;;;;;;5032150;28;20064;-58
2023/08/24 02:31:30;;;;;;;13.45;7.10;;;20.00;99.90;;;;;;5031792;28;20051;-57
2023/08/24 02:33:56;;;;;;;10.77;6.90;;;20.00;99.90;;;;;;5031935;28;20025;-58
2023/08/24 02:36:21;;;;;;;10.52;6.82;;;20.00;99.90;;;;;;5032234;28;20021;-57
2023/08/24 02:38:47;;;;;;;9.85;7.10;;;20.00;99.90;;;;;;5032132;28;20384;-56
2023/08/24 02:41:14;;;;;;;11.98;6.68;;;20.00;99.90;;;;;;5031549;28;20025;-58
2023/08/24 02:43:40;;;;;;;9.80;7.45;;;20.00;99.90;;;;;;5031593;28;20113;-58
2023/08/24 02:46:07;;;;;;;9.10;7.45;;;20.00;99.90;;;;;;5031639;28;20144;-57
2023/08/24 02:48:34;;;;;;;8.65;7.57;;;19.90;99.90;;;;;;5031638;28;20512;-58
2023/08/24 02:51:00;;;;;;;10.50;7.63;;;19.80;99.90;;;;;;5031642;28;20033;-58
2023/08/24 02:53:26;;;;;;;14.95;7.80;;;19.70;99.90;;;;;;5031484;28;20017;-59
2023/08/24 02:55:53;;;;;;;11.02;7.15;;;19.70;99.90;;;;;;5031688;28;20026;-57
2023/08/24 02:58:19;;;;;;;12.13;7.55;;;20.60;99.90;;;;;;5031388;28;20167;-56
2023/08/24 03:00:44;;;;;;;10.77;7.53;;;19.70;99.90;;;;;;5030824;28;20112;-57
2023/08/24 03:03:10;;;;;;;7.85;7.00;;;19.70;99.90;;;;;;5031221;28;20029;-58
2023/08/24 03:05:36;;;;;;;10.98;6.95;;;19.90;99.90;;;;;;5031036;28;20025;-59
2023/08/24 03:08:04;;;;;;;9.05;6.97;;;19.80;99.90;;;;;;5031219;28;20330;-59
2023/08/24 03:10:30;;;;;;;10.55;7.00;;;19.80;99.90;;;;;;5030732;28;20087;-59
2023/08/24 03:12:55;;;;;;;8.65;7.25;;;19.70;99.90;;;;;;5031049;28;20018;-58
2023/08/24 03:15:21;;;;;;;8.52;7.10;;;19.80;99.90;;;;;;5030983;28;20508;-58
2023/08/24 03:17:47;;;;;;;11.60;7.15;;;19.80;99.90;;;;;;5031233;28;20033;-58
2023/08/24 03:20:13;;;;;;;9.52;7.43;;;19.80;99.90;;;;;;5030564;28;20397;-57
2023/08/24 03:22:40;;;;;;;11.45;8.02;;;19.80;99.90;;;;;;5031001;28;20392;-58
2023/08/24 03:25:06;;;;;;;9.15;7.72;;;19.60;99.90;;;;;;5030882;28;20072;-59
2023/08/24 03:27:32;;;;;;;10.57;7.22;;;19.70;99.90;;;;;;5030573;28;20017;-60
2023/08/24 03:29:58;;;;;;;10.15;7.10;;;19.70;99.90;;;;;;5030625;28;20479;-60
2023/08/24 03:32:24;;;;;;;10.68;7.78;;;19.80;99.90;;;;;;5031560;28;20104;-59
2023/08/24 03:34:49;;;;;;;15.10;8.00;;;19.50;99.90;;;;;;5031045;28;20484;-57
2023/08/24 03:37:15;;;;;;;16.33;7.63;;;19.50;99.90;;;;;;5031477;28;20061;-59
2023/08/24 03:39:41;;;;;;;13.02;8.30;;;19.60;99.90;;;;;;5031977;28;20065;-61
2023/08/24 03:42:07;;;;;;;12.88;8.23;;;19.50;99.90;;;;;;5030769;28;20032;-61
2023/08/24 03:44:32;;;;;;;8.70;7.80;;;19.50;99.90;;;;;;5030635;28;20037;-58
2023/08/24 03:46:58;;;;;;;9.55;8.05;;;19.40;99.90;;;;;;5030918;28;20104;-57
2023/08/24 03:49:24;;;;;;;13.73;7.90;;;19.40;99.90;;;;;;5031148;28;20654;-57
2023/08/24 03:51:50;;;;;;;15.05;8.20;;;19.40;99.90;;;;;;5031005;28;20075;-59
2023/08/24 03:54:15;;;;;;;8.30;7.50;;;19.30;99.90;;;;;;5030985;28;20025;-59
2023/08/24 03:56:41;;;;;;;16.58;7.45;;;19.30;99.90;;;;;;5031462;28;20053;-58
2023/08/24 03:59:06;;;;;;;8.48;7.63;;;19.30;99.90;;;;;;5034302;28;20028;-59
2023/08/24 04:01:32;;;;;;;14.70;8.10;;;19.40;99.90;;;;;;5032446;28;20021;-58
2023/08/24 04:03:58;;;;;;;10.55;8.18;;;19.30;99.90;;;;;;5035693;28;20044;-55
2023/08/24 04:06:24;;;;;;;15.05;9.10;;;19.30;99.90;;;;;;5035394;28;20041;-56
2023/08/24 04:08:49;;;;;;;9.50;8.27;;;19.30;99.90;;;;;;5034384;28;20494;-54
2023/08/24 04:11:15;;;;;;;12.68;7.53;;;19.20;99.90;;;;;;5035512;28;20493;-57
2023/08/24 04:13:40;;;;;;;13.50;9.10;;;19.20;99.90;;;;;;5035591;28;20036;-57
2023/08/24 04:16:06;;;;;;;13.13;8.48;;;19.20;99.90;;;;;;5033988;28;20029;-60
2023/08/24 04:18:32;;;;;;;8.98;8.07;;;19.20;99.90;;;;;;5030184;28;20027;-59
2023/08/24 04:20:57;;;;;;;8.70;7.20;;;19.20;99.90;;;;;;5031362;28;20063;-59
2023/08/24 04:23:28;;;;;;;8.88;7.95;;;19.30;99.90;;;;;;5030156;28;20029;-59
2023/08/24 04:25:54;;;;;;;17.80;7.68;;;19.30;99.90;;;;;;5029923;28;20057;-57
2023/08/24 04:28:20;;;;;;;11.27;7.70;;;19.30;99.90;;;;;;5029858;28;20096;-58
2023/08/24 04:30:54;;;;;;;11.68;8.20;;;19.30;99.90;;;;;;5029723;28;20038;-59
2023/08/24 04:33:20;;;;;;;13.32;7.95;;;19.40;99.90;;;;;;5030055;28;20028;-54
2023/08/24 04:35:47;;;;;;;9.23;8.02;;;19.50;99.90;;;;;;5029986;28;20030;-59
2023/08/24 04:38:13;;;;;;;9.02;7.82;;;19.50;99.90;;;;;;5029899;28;20034;-60
2023/08/24 04:40:48;;;;;;;13.05;7.40;;;19.50;99.90;;;;;;5032394;28;20032;-60
2023/08/24 04:43:13;;;;;;;10.68;7.75;;;19.50;99.90;;;;;;5033860;28;20076;-58
2023/08/24 04:45:39;;;;;;;10.93;8.00;;;19.40;99.90;;;;;;5033780;28;20061;-60
2023/08/24 04:48:04;;;;;;;8.52;7.53;;;19.40;99.90;;;;;;5033926;28;20108;-59
2023/08/24 04:50:30;;;;;;;9.15;6.95;;;19.50;99.90;;;;;;5034436;28;20072;-60
2023/08/24 04:52:56;;;;;;;12.80;8.10;;;19.50;99.90;;;;;;5033731;28;20032;-59
2023/08/24 04:55:21;;;;;;;9.38;8.35;;;19.50;99.90;;;;;;5033484;28;20061;-58
2023/08/24 04:57:47;;;;;;;7.70;6.90;;;19.50;99.90;;;;;;5033380;28;20032;-60
2023/08/24 05:00:16;;;;;;;8.27;7.43;;;19.40;99.90;;;;;;5032849;28;20053;-59
2023/08/24 05:02:42;;;;;;;8.95;6.25;;;19.40;99.90;;;;;;5033541;28;20146;-59
2023/08/24 05:05:10;;;;;;;7.35;6.55;;;19.40;99.90;;;;;;5033329;28;20029;-59
2023/08/24 05:07:38;;;;;;;15.93;5.47;;;19.40;99.90;;;;;;5033384;28;20688;-58
2023/08/24 05:10:04;;;;;;;7.32;5.90;;;19.40;99.90;;;;;;5032978;28;20033;-58
2023/08/24 05:12:29;;;;;;;7.70;6.32;;;19.40;99.90;;;;;;5016867;28;20026;-56
2023/08/24 05:14:55;;;;;;;6.00;5.40;;;19.40;99.90;;;;;;5033364;28;20160;-58
2023/08/24 05:17:24;;;;;;;7.00;5.55;;;19.50;99.90;;;;;;5033473;28;20116;-60
2023/08/24 05:19:54;;;;;;;8.20;5.43;;;19.50;99.90;;;;;;5032872;28;20405;-59
2023/08/24 05:22:20;;;;;;;5.25;4.75;;;19.50;99.90;;;;;;5033185;28;20030;-59
2023/08/24 05:24:46;;;;;;;17.05;4.90;;;19.50;99.90;;;;;;5032995;28;20075;-59
2023/08/24 05:27:11;;;;;;;9.75;5.10;;;19.30;99.90;;;;;;5034266;28;20032;-58
2023/08/24 05:29:37;;;;;;;6.28;4.38;;;19.20;99.90;;;;;;5033883;28;20024;-55
2023/08/24 05:32:03;;;;;;;5.32;3.85;;;19.20;99.90;;;;;;5033837;28;20025;-59
2023/08/24 05:34:28;;;;;;;9.02;4.32;;;19.20;99.90;;;;;;5033974;28;20031;-58
2023/08/24 05:36:54;;;;;;;5.28;4.55;;;19.20;99.90;;;;;;5033055;28;20028;-58
2023/08/24 05:39:19;;;;;;;5.50;4.25;;;19.30;99.90;;;;;;5032903;28;20021;-58
2023/08/24 05:41:45;;;;;;;7.05;4.57;;;19.40;99.90;;;;;;5032789;28;20056;-60
2023/08/24 05:44:11;;;;;;;8.30;4.43;;;19.40;99.90;;;;;;5032788;28;20025;-59
2023/08/24 05:46:36;;;;;;;7.40;4.07;;;19.40;99.90;;;;;;5032737;28;20431;-59
2023/08/24 05:49:02;;;;;;;6.00;4.43;;;19.50;99.90;;;;;;5032602;28;20049;-59
2023/08/24 05:51:28;;;;;;;5.30;3.95;;;19.50;99.90;;;;;;5032181;28;20029;-57
2023/08/24 05:53:58;;;;;;;8.23;4.18;;;19.60;99.90;;;;;;5032413;28;20025;-59
2023/08/24 05:56:24;;;;;;;4.28;3.90;;;19.70;99.90;;;;;;5032561;28;20087;-59
2023/08/24 05:58:50;;;;;;;5.85;3.78;;;19.80;99.90;;;;;;5032236;28;20064;-56
2023/08/24 06:01:15;;;;;;;7.53;3.80;;;19.80;99.90;;;;;;5032059;28;20053;-60
2023/08/24 06:03:41;;;;;;;5.88;3.78;;;20.00;99.90;;;;;;5032284;28;20136;-59
2023/08/24 06:06:08;;;;;;;7.80;3.60;;;20.10;99.90;;;;;;5032352;28;20072;-59
2023/08/24 06:08:34;;;;;;;3.58;2.92;;;20.30;99.90;;;;;;5032135;28;20026;-57
2023/08/24 06:11:00;;;;;;;6.38;3.28;;;20.30;99.90;;;;;;5031942;28;20064;-60
2023/08/24 06:13:26;;;;;;;6.28;3.05;;;20.40;99.90;;;;;;5032317;28;20045;-58
2023/08/24 06:15:52;;;;;;;6.15;3.67;;;20.40;99.90;;;;;;5032533;28;20060;-57
2023/08/24 06:18:17;;;;;;;5.18;3.30;;;20.40;99.90;;;;;;5032123;28;20022;-57
2023/08/24 06:20:43;;;;;;;9.73;4.03;;;20.50;99.90;;;;;;5031871;28;20044;-58
2023/08/24 06:23:08;;;;;;;5.25;3.15;;;20.70;99.90;;;;;;5032088;28;20033;-59
2023/08/24 06:25:35;;;;;;;5.53;3.00;;;20.70;99.90;;;;;;5031916;28;20029;-57
2023/08/24 06:28:03;;;;;;;5.55;3.50;;;20.70;99.90;;;;;;5031937;28;20048;-58
2023/08/24 06:30:32;;;;;;;11.52;3.97;;;20.90;99.90;;;;;;5014848;28;20032;-58
2023/08/24 06:32:58;;;;;;;4.20;3.45;;;21.00;99.90;;;;;;5031786;28;20018;-58
2023/08/24 06:35:24;;;;;;;10.07;4.32;;;20.90;99.90;;;;;;5031721;28;20028;-58
2023/08/24 06:37:49;;;;;;;7.63;3.80;;;20.70;99.90;;;;;;5031638;28;20121;-58
2023/08/24 06:40:17;;;;;;;5.88;3.60;;;20.40;99.90;;;;;;5031565;28;20021;-59
2023/08/24 06:42:42;;;;;;;9.98;3.38;;;20.30;99.90;;;;;;5028592;28;20378;-60
2023/08/24 06:45:10;;;;;;;12.70;4.00;;;20.20;99.90;;;;;;5002942;28;20029;-57
2023/08/24 06:47:36;;;;;;;6.65;3.53;;;20.10;99.90;;;;;;4995601;28;20022;-58
2023/08/24 06:50:02;;;;;;;12.45;3.85;;;20.20;99.90;;;;;;5013007;28;20500;-57
2023/08/24 06:52:27;;;;;;;4.18;3.45;;;20.20;99.90;;;;;;4998457;28;20022;-58
2023/08/24 06:54:53;;;;;;;8.48;3.75;;;20.20;99.90;;;;;;5014891;28;20026;-56
2023/08/24 06:57:18;;;;;;;7.35;3.88;;;20.30;99.90;;;;;;5015054;28;20022;-57
2023/08/24 06:59:44;;;;;;;5.07;3.65;;;20.40;99.90;;;;;;5015188;28;20033;-58
2023/08/24 07:02:10;;;;;;;7.80;3.83;;;20.40;99.90;;;;;;5015339;28;20114;-58
2023/08/24 07:04:36;;;;;;;4.38;3.53;;;20.40;99.90;;;;;;5017637;28;20489;-53
2023/08/24 07:07:02;;;;;;;5.60;3.60;;;20.30;99.90;;;;;;5021489;28;20088;-55
2023/08/24 07:09:28;;;;;;;9.30;3.95;;;20.30;99.90;;;;;;5020051;28;20099;-58
2023/08/24 07:11:53;;;;;;;7.75;4.28;;;20.40;99.90;;;;;;5013756;28;20022;-57
2023/08/24 07:14:19;;;;;;;10.20;3.70;;;20.50;99.90;;;;;;5015179;28;20431;-57
2023/08/24 07:16:44;;;;;;;5.32;3.40;;;20.80;99.90;;;;;;4998500;28;20017;-60
2023/08/24 07:19:10;;;;;;;5.65;3.75;;;21.00;99.90;;;;;;5035549;22;20417;-50
2023/08/24 07:21:36;;;;;;;9.57;3.35;;;21.30;99.90;;;;;;5029301;28;20464;-52
2023/08/24 07:24:02;;;;;;;8.45;3.75;;;21.60;99.90;;;;;;5031241;28;20021;-54
2023/08/24 07:26:27;;;;;;;6.53;3.20;;;21.80;99.90;;;;;;5030887;28;20029;-53
2023/08/24 07:28:53;;;;;;;6.28;4.03;;;22.00;99.90;;;;;;5023914;28;20072;-51
2023/08/24 07:31:19;;;;;;;10.93;3.58;;;22.10;99.90;;;;;;4994701;28;20394;-52
2023/08/24 07:33:44;;;;;;;6.82;3.20;;;22.10;99.90;;;;;;4994841;28;20026;-52
2023/08/24 07:36:10;;;;;;;5.32;3.10;;;22.10;99.90;;;;;;4994971;28;20025;-51
2023/08/24 07:38:35;;;;;;;9.20;3.28;;;22.00;99.90;;;;;;4994659;28;20032;-51
2023/08/24 07:41:01;;;;;;;3.67;2.90;;;22.00;99.90;;;;;;4994359;28;20025;-55
2023/08/24 07:43:27;;;;;;;2.83;2.55;;;22.00;99.90;;;;;;4994651;28;20033;-53
2023/08/24 07:45:52;;;;;;;11.23;2.63;;;22.00;99.90;;;;;;4994382;28;20168;-51
2023/08/24 07:48:18;;;;;;;11.15;3.88;;;21.80;99.90;;;;;;4994361;28;20021;-52
2023/08/24 07:50:43;;;;;;;6.35;3.10;;;21.70;99.90;;;;;;4994212;28;20474;-54
2023/08/24 07:53:09;;;;;;;9.15;4.40;;;21.70;99.90;;;;;;4999628;28;20026;-50
2023/08/24 07:55:34;;;;;;;7.70;3.72;;;21.70;99.90;;;;;;5013739;28;20032;-54
2023/08/24 07:58:00;;;;;;;8.63;4.97;;;21.80;99.90;;;;;;5013985;28;20473;-54
2023/08/24 08:00:26;;;;;;;4.50;3.70;;;21.80;99.90;;;;;;5013750;28;20040;-51
2023/08/24 08:02:51;;;;;;;8.73;4.07;;;21.60;99.90;;;;;;5013130;28;20029;-54
2023/08/24 08:05:18;;;;;;;7.28;4.13;;;21.40;99.90;;;;;;5013794;28;20400;-53
2023/08/24 08:07:43;;;;;;;4.82;3.83;;;21.30;99.90;;;;;;5013510;28;20032;-52
2023/08/24 08:10:09;;;;;;;6.63;4.03;;;21.30;99.90;;;;;;5013455;28;20025;-56
2023/08/24 08:12:35;;;;;;;9.10;3.75;;;21.30;99.90;;;;;;5013917;28;20017;-56
2023/08/24 08:15:01;;;;;;;5.40;4.10;;;21.40;99.90;;;;;;5012949;28;20030;-52
2023/08/24 08:17:30;;;;;;;10.27;3.65;;;21.70;99.90;;;;;;5013135;28;20091;-60
2023/08/24 08:19:56;;;;;;;7.30;3.40;;;21.80;99.90;;;;;;5013632;28;20508;-55
2023/08/24 08:22:22;;;;;;;5.63;3.55;;;22.00;99.90;;;;;;5013400;28;20101;-55
2023/08/24 08:24:47;;;;;;;6.63;3.42;;;22.10;99.90;;;;;;4993036;28;20068;-54
2023/08/24 08:27:13;;;;;;;4.72;2.95;;;22.30;99.90;;;;;;5013749;28;20495;-53
2023/08/24 08:29:39;;;;;;;10.82;3.75;;;22.30;99.90;;;;;;5031113;28;20071;-53
2023/08/24 08:32:05;;;;;;;9.13;3.95;;;22.30;99.90;;;;;;5012987;28;20113;-54
2023/08/24 08:34:31;;;;;;;8.10;3.90;;;22.30;99.90;;;;;;5012839;28;20397;-52
2023/08/24 08:36:57;;;;;;;7.97;3.22;;;22.40;99.90;;;;;;5013547;28;20536;-49
2023/08/24 08:39:23;;;;;;;6.70;3.13;;;22.40;99.90;;;;;;5012965;28;20185;-50
2023/08/24 08:41:49;;;;;;;6.20;3.80;;;22.40;99.90;;;;;;5013212;28;20113;-51
2023/08/24 08:44:15;;;;;;;6.95;3.17;;;22.40;99.90;;;;;;5031025;28;20026;-47
2023/08/24 08:46:42;;;;;;;8.52;2.88;;;22.40;99.90;;;;;;5013005;28;20029;-48
2023/08/24 08:49:09;;;;;;;9.38;3.30;;;22.40;99.90;;;;;;5031294;28;20025;-53
2023/08/24 08:51:38;;;;;;;7.00;3.33;;;22.40;99.90;;;;;;5014378;28;20373;-54
2023/08/24 08:54:06;;;;;;;12.23;3.30;;;22.40;99.90;;;;;;5014704;28;20025;-51
2023/08/24 08:56:33;;;;;;;10.55;3.20;;;22.30;99.90;;;;;;5031567;28;20026;-51
2023/08/24 08:59:07;;;;;;;5.72;3.13;;;22.50;99.90;;;;;;5011716;28;20052;-48
2023/08/24 09:01:32;;;;;;;9.57;3.10;;;23.50;99.90;;;;;;5013031;28;20030;-52
2023/08/24 09:03:58;;;;;;;6.28;2.70;;;24.60;99.90;;;;;;5013255;28;20022;-51
2023/08/24 09:06:24;;;;;;;6.38;2.47;;;25.30;99.90;;;;;;5012666;28;20029;-58
2023/08/24 09:08:50;;;;;;;3.47;2.22;;;25.60;99.90;;;;;;5012919;28;20480;-48
2023/08/24 09:11:18;;;;;;;5.93;2.58;;;25.80;99.90;;;;;;5013284;28;20265;-53
2023/08/24 09:13:44;;;;;;;10.95;2.53;;;25.70;99.90;;;;;;5017434;28;20033;-52
2023/08/24 09:16:15;;;;;;;6.40;2.45;;;25.80;99.90;;;;;;5011913;28;20037;-50
2023/08/24 09:18:44;;;;;;;5.47;2.90;;;26.00;99.90;;;;;;5013047;28;20057;-53
2023/08/24 09:21:11;;;;;;;6.43;2.88;;;26.40;99.90;;;;;;5013067;28;20061;-53
2023/08/24 09:23:42;;;;;;;4.38;2.60;;;26.60;99.90;;;;;;5013486;28;20304;-53
2023/08/24 09:26:08;;;;;;;7.82;2.78;;;26.90;99.90;;;;;;5014704;28;20112;-50
2023/08/24 09:28:36;;;;;;;2.72;2.42;;;27.10;99.90;;;;;;5000298;28;20453;-54
2023/08/24 09:31:02;;;;;;;7.30;2.72;;;27.00;99.90;;;;;;5016336;28;20443;-51
2023/08/24 09:33:29;;;;;;;3.95;2.88;;;27.00;99.90;;;;;;5015925;28;20065;-51
2023/08/24 09:36:01;;;;;;;4.07;2.97;;;26.90;99.90;;;;;;5016622;28;20030;-50
2023/08/24 09:38:26;;;;;;;5.20;2.90;;;26.60;99.90;;;;;;5015989;28;20548;-54
2023/08/24 09:40:54;;;;;;;5.88;3.10;;;26.40;99.90;;;;;;5033617;28;20117;-51
2023/08/24 09:43:20;;;;;;;16.85;11.60;;;26.50;99.90;;;;;;5016048;28;20034;-55
2023/08/24 09:45:55;;;;;;;22.73;12.48;;;26.60;99.90;;;;;;4999866;28;20029;-54
2023/08/24 09:48:21;;;;;;;;;;;26.70;99.90;;;;;;5016637;28;20078;-55
2023/08/24 09:50:51;;;;;;;9.65;2.55;;;26.70;99.90;;;;;;5015867;28;19924;-51
2023/08/24 09:53:18;;;;;;;4.15;2.75;;;26.90;99.90;;;;;;5014911;28;20065;-55
2023/08/24 09:55:54;;;;;;;9.25;2.90;;;26.90;99.90;;;;;;5015492;28;20018;-56
2023/08/24 09:58:20;;;;;;;4.07;2.50;;;26.70;99.90;;;;;;5009076;28;20025;-52
2023/08/24 10:00:47;;;;;;;6.18;3.00;;;26.60;99.90;;;;;;4996317;28;20037;-58
2023/08/24 10:03:20;;;;;;;5.20;3.05;;;26.80;99.90;;;;;;5013950;28;20032;-62
2023/08/24 10:05:49;;;;;;;5.80;2.60;;;26.70;99.90;;;;;;5015800;28;20029;-52
2023/08/24 10:08:16;;;;;;;8.93;3.15;;;26.70;99.90;;;;;;5014094;28;20033;-54
2023/08/24 10:10:43;;;;;;;5.22;3.55;;;26.70;99.90;;;;;;5015351;28;20397;-49
2023/08/24 10:13:22;;;;;;;9.30;2.95;;;26.90;99.90;;;;;;5020063;28;20079;-52
2023/08/24 10:15:48;;;;;;;5.53;3.05;;;26.90;99.90;;;;;;5020670;28;20120;-49
2023/08/24 10:18:16;;;;;;;3.80;3.15;;;27.10;99.90;;;;;;5024972;28;20404;-54
2023/08/24 10:20:43;;;;;;;8.98;2.72;;;27.30;99.90;;;;;;5031522;28;20037;-50
2023/08/24 10:23:12;;;;;;;7.95;3.25;;;27.40;99.90;;;;;;5015694;28;20551;-50
2023/08/24 10:25:39;;;;;;;2.70;2.50;;;27.40;99.90;;;;;;5015455;28;20037;-50
2023/08/24 10:28:06;;;;;;;5.07;2.75;;;27.20;99.90;;;;;;5015413;28;20022;-50
2023/08/24 10:30:34;;;;;;;5.80;3.20;;;27.10;99.90;;;;;;5033039;28;20480;-49
2023/08/24 10:33:00;;;;;;;3.40;2.78;;;27.10;99.90;;;;;;5014887;28;20522;-52
2023/08/24 10:35:26;;;;;;;10.00;3.17;;;27.10;99.90;;;;;;5015127;28;20061;-53
2023/08/24 10:37:53;;;;;;;2.75;2.55;;;27.10;99.90;;;;;;4998329;28;20032;-50
2023/08/24 10:40:39;;;;;;;3.63;2.63;;;27.20;99.90;;;;;;5032227;28;20485;-53
2023/08/24 10:43:05;;;;;;;5.38;2.83;;;27.40;99.90;;;;;;5014894;28;20109;-48
2023/08/24 10:45:57;;;;;;;7.63;3.17;;;27.70;99.90;;;;;;5014305;28;20025;-48
2023/08/24 10:48:41;;;;;;;6.10;2.80;;;27.40;99.90;;;;;;5027800;28;20052;-51
2023/08/24 10:51:18;;;;;;;15.35;6.18;;;27.50;99.90;;;;;;5000384;28;20021;-49
2023/08/24 10:54:11;;;;;;;6.35;3.00;;;27.50;99.90;;;;;;4998363;28;20026;-50
2023/08/24 10:56:39;;;;;;;3.17;2.45;;;27.60;99.90;;;;;;5010330;28;20057;-49
2023/08/24 10:59:13;;;;;;;6.65;3.25;;;27.60;99.90;;;;;;5014381;28;20029;-49
2023/08/24 11:01:40;;;;;;;4.22;2.80;;;27.60;99.90;;;;;;5032469;28;20018;-52
2023/08/24 11:04:09;;;;;;;4.53;2.72;;;27.70;99.90;;;;;;4998343;28;20032;-50
2023/08/24 11:06:34;;;;;;;3.10;2.45;;;27.80;99.80;;;;;;4998562;28;20033;-48
2023/08/24 11:09:13;;;;;;;4.22;2.75;;;28.00;99.50;;;;;;5014495;28;20025;-49
2023/08/24 11:11:40;;;;;;;3.10;2.80;;;28.10;99.30;;;;;;5014272;28;20032;-50
2023/08/24 11:14:21;;;;;;;4.85;2.92;;;28.20;99.70;;;;;;4998259;28;20025;-52
2023/08/24 11:16:48;;;;;;;4.35;2.75;;;28.30;99.10;;;;;;5012425;28;20109;-49
2023/08/24 11:19:15;;;;;;;4.57;2.72;;;28.40;98.80;;;;;;5012019;28;20030;-50
2023/08/24 11:21:42;;;;;;;5.00;2.85;;;28.40;98.80;;;;;;4994753;28;20026;-49
2023/08/24 11:24:10;;;;;;;3.15;2.90;;;28.30;98.50;;;;;;5005755;28;20444;-51
2023/08/24 11:26:40;;;;;;;4.47;2.60;;;28.30;98.60;;;;;;5031882;28;20029;-50
2023/08/24 11:29:06;;;;;;;3.08;2.47;;;28.30;99.30;;;;;;4998029;28;20443;-50
2023/08/24 11:31:34;;;;;;;9.48;3.13;;;28.30;99.50;;;;;;5031585;28;20026;-48
2023/08/24 11:34:00;;;;;;;4.40;2.47;;;28.50;99.60;;;;;;4981734;28;20422;-52
2023/08/24 11:36:25;;;;;;;5.35;2.70;;;28.50;98.80;;;;;;5014148;28;20026;-48
2023/08/24 11:38:56;;;;;;;7.40;3.17;;;28.60;98.70;;;;;;5031714;28;20033;-49
2023/08/24 11:41:22;;;;;;;5.20;2.78;;;28.50;98.80;;;;;;4997108;28;20033;-48
2023/08/24 11:43:50;;;;;;;4.38;2.65;;;28.40;98.80;;;;;;5013678;28;20112;-50
2023/08/24 11:46:18;;;;;;;8.00;2.85;;;28.40;98.70;;;;;;4996728;28;20056;-51
2023/08/24 11:48:45;;;;;;;4.47;2.97;;;28.20;98.90;;;;;;5013167;28;20025;-48
2023/08/24 11:51:12;;;;;;;9.15;3.00;;;28.30;98.90;;;;;;5030581;28;20088;-48
2023/08/24 11:53:45;;;;;;;5.70;2.45;;;28.20;99.10;;;;;;5013358;28;20131;-50
2023/08/24 11:56:12;;;;;;;5.65;3.20;;;28.30;99.00;;;;;;5013650;28;20021;-49
2023/08/24 11:58:39;;;;;;;3.30;2.65;;;28.30;99.00;;;;;;5013143;28;20122;-50
2023/08/24 12:01:05;;;;;;;5.50;2.40;;;28.40;98.50;;;;;;5013311;28;20029;-48
2023/08/24 12:03:31;;;;;;;5.85;2.88;;;28.40;99.00;;;;;;4997664;28;20070;-49
2023/08/24 12:06:01;;;;;;;6.97;2.33;;;28.40;99.00;;;;;;5013775;28;20463;-51
2023/08/24 12:08:27;;;;;;;21.73;15.32;;;28.30;98.90;;;;;;5013629;28;20021;-50
2023/08/24 12:10:53;;;;;;;17.05;13.85;;;28.30;99.30;;;;;;4980977;28;20469;-51
2023/08/24 12:13:18;;;;;;;6.78;3.20;;;28.40;99.80;;;;;;5014327;28;20030;-50
2023/08/24 12:15:47;;;;;;;7.40;2.35;;;28.40;98.90;;;;;;5033248;28;20025;-52
2023/08/24 12:18:13;;;;;;;7.00;2.53;;;28.40;99.00;;;;;;5014041;28;20030;-52
2023/08/24 12:20:43;;;;;;;3.00;2.47;;;28.40;99.20;;;;;;5013258;28;20044;-51
2023/08/24 12:23:10;;;;;;;5.28;3.50;;;28.30;98.90;;;;;;5013914;28;20028;-47
2023/08/24 12:25:43;;;;;;;4.47;2.65;;;28.50;99.20;;;;;;4997480;28;20083;-49
2023/08/24 12:28:16;;;;;;;7.78;2.40;;;28.60;99.50;;;;;;5013992;28;20026;-50
2023/08/24 12:30:52;;;;;;;8.43;3.03;;;28.60;99.10;;;;;;5012734;28;20531;-49
2023/08/24 12:33:28;;;;;;;4.53;2.65;;;28.60;98.80;;;;;;5029965;28;20036;-50
2023/08/24 12:35:55;;;;;;;8.85;2.08;;;28.50;98.90;;;;;;5011763;28;20493;-51
2023/08/24 12:38:22;;;;;;;6.43;2.75;;;28.40;99.10;;;;;;5012409;28;20125;-52
2023/08/24 12:40:48;;;;;;;4.05;2.25;;;28.50;99.60;;;;;;5012452;28;20559;-48
2023/08/24 12:43:13;;;;;;;3.83;2.30;;;28.60;99.10;;;;;;5012895;28;20057;-52
2023/08/24 12:45:42;;;;;;;2.90;2.47;;;28.30;99.10;;;;;;5013011;28;20057;-51